Time;durP1;ratioP1;P1;durP2;ratioP2;P2;SDS_P1;SDS_P2;PMS_P1;PMS_P2;Temp;Humidity;BMP_temperature;BMP_pressure;BME280_temperature;BME280_humidity;BME280_pressure;Samples;Min_cycle;Max_cycle;Signal;HPM_P1;HPM_P2
2022/09/04 00:01:22;;;;;;;11.95;7.03;;;;;;;;;;5081622;27;20520;-67
2022/09/04 00:03:56;;;;;;;14.43;7.53;;;;;;;;;;5091552;28;20053;-67
2022/09/04 00:06:27;;;;;;;9.30;7.70;;;;;;;;;;5090420;28;20048;-67
2022/09/04 00:08:56;;;;;;;9.02;7.70;;;;;;;;;;5086721;28;20048;-67
2022/09/04 00:11:35;;;;;;;8.00;7.28;;;;;;;;;;5090018;28;20515;-67
2022/09/04 00:14:05;;;;;;;9.55;7.40;;;;;;;;;;5089019;28;20049;-67
2022/09/04 00:16:41;;;;;;;8.35;7.55;;;;;;;;;;5096583;28;20058;-67
2022/09/04 00:19:08;;;;;;;11.07;7.88;;;;;;;;;;5099399;27;20059;-66
2022/09/04 00:21:34;;;;;;;9.85;7.05;;;;;;;;;;5098222;28;20178;-67
2022/09/04 00:24:00;;;;;;;9.60;7.03;;;;;;;;;;5096312;27;20064;-67
2022/09/04 00:26:27;;;;;;;9.63;7.88;;;;;;;;;;5090998;28;20062;-67
2022/09/04 00:28:57;;;;;;;13.60;8.30;;;;;;;;;;5091136;28;20053;-66
2022/09/04 00:31:37;;;;;;;11.77;8.50;;;;;;;;;;5091168;28;20056;-67
2022/09/04 00:34:29;;;;;;;9.07;7.97;;;;;;;;;;5081904;28;20049;-67
2022/09/04 00:37:00;;;;;;;8.18;7.45;;;;;;;;;;5089179;28;20538;-67
2022/09/04 00:39:34;;;;;;;13.40;8.52;;;;;;;;;;5091684;28;20052;-67
2022/09/04 00:42:03;;;;;;;11.53;8.63;;;;;;;;;;5090523;28;20053;-67
2022/09/04 00:44:29;;;;;;;10.38;8.93;;;;;;;;;;5090935;28;20071;-67
2022/09/04 00:47:14;;;;;;;11.18;8.43;;;;;;;;;;5082037;28;20519;-67
2022/09/04 00:49:46;;;;;;;14.40;8.25;;;;;;;;;;5092078;28;20051;-67
2022/09/04 00:52:23;;;;;;;9.73;8.20;;;;;;;;;;5081583;28;20159;-67
2022/09/04 00:55:16;;;;;;;14.18;9.85;;;;;;;;;;5070812;28;20060;-67
2022/09/04 00:58:02;;;;;;;9.32;8.35;;;;;;;;;;5071353;28;20112;-67
2022/09/04 01:00:30;;;;;;;10.95;9.13;;;;;;;;;;5082827;28;20114;-67
2022/09/04 01:02:59;;;;;;;9.40;8.35;;;;;;;;;;5091794;28;20052;-67
2022/09/04 01:05:36;;;;;;;10.65;8.48;;;;;;;;;;5089695;28;20079;-67
2022/09/04 01:08:08;;;;;;;11.80;9.93;;;;;;;;;;5075939;28;20054;-67
2022/09/04 01:11:01;;;;;;;13.07;10.30;;;;;;;;;;5081834;28;20595;-67
2022/09/04 01:13:35;;;;;;;10.25;9.13;;;;;;;;;;5106225;28;20059;-67
2022/09/04 01:16:21;;;;;;;10.63;9.48;;;;;;;;;;5087669;28;20049;-68
2022/09/04 01:19:06;;;;;;;14.40;10.40;;;;;;;;;;5090378;28;20063;-66
2022/09/04 01:21:33;;;;;;;10.82;9.18;;;;;;;;;;5088448;28;20497;-67
2022/09/04 01:24:27;;;;;;;13.73;9.55;;;;;;;;;;5090170;28;20098;-68
2022/09/04 01:27:04;;;;;;;9.60;8.70;;;;;;;;;;5087431;28;20060;-68
2022/09/04 01:29:45;;;;;;;11.43;9.98;;;;;;;;;;5082867;28;20052;-67
2022/09/04 01:32:21;;;;;;;13.27;9.75;;;;;;;;;;5074998;28;20907;-67
2022/09/04 01:34:51;;;;;;;10.48;9.43;;;;;;;;;;5081771;28;20059;-67
2022/09/04 01:37:36;;;;;;;11.00;9.88;;;;;;;;;;5070095;28;20060;-68
2022/09/04 01:40:03;;;;;;;12.07;9.60;;;;;;;;;;5094977;28;20044;-67
2022/09/04 01:42:37;;;;;;;14.75;9.75;;;;;;;;;;5098299;27;20057;-67
2022/09/04 01:45:04;;;;;;;10.75;9.68;;;;;;;;;;5094842;27;20055;-67
2022/09/04 01:47:36;;;;;;;12.77;9.93;;;;;;;;;;5073774;28;20060;-68
2022/09/04 01:50:08;;;;;;;10.77;9.77;;;;;;;;;;5091076;28;20063;-67
2022/09/04 01:52:44;;;;;;;11.10;9.85;;;;;;;;;;5093591;28;20053;-67
2022/09/04 01:55:10;;;;;;;;;;;;;;;;;;5106523;28;20500;-67
2022/09/04 01:57:43;;;;;;;11.73;10.02;;;;;;;;;;5108830;27;45593;-67
2022/09/04 02:00:11;;;;;;;11.00;9.88;;;;;;;;;;5099018;27;20055;-67
2022/09/04 02:02:56;;;;;;;10.63;9.45;;;;;;;;;;5089371;27;20052;-67
2022/09/04 02:05:27;;;;;;;12.55;9.68;;;;;;;;;;5093545;28;20045;-67
2022/09/04 02:08:10;;;;;;;12.50;10.40;;;;;;;;;;5094747;28;20416;-67
2022/09/04 02:10:43;;;;;;;10.55;9.15;;;;;;;;;;5092384;28;20053;-67
2022/09/04 02:13:32;;;;;;;12.38;9.43;;;;;;;;;;5092971;28;20044;-67
2022/09/04 02:16:05;;;;;;;9.27;8.48;;;;;;;;;;5092146;28;20048;-66
2022/09/04 02:18:50;;;;;;;14.77;8.63;;;;;;;;;;5093038;28;20413;-67
2022/09/04 02:21:25;;;;;;;9.17;7.83;;;;;;;;;;5076803;28;20047;-67
2022/09/04 02:23:59;;;;;;;11.77;9.00;;;;;;;;;;5082060;28;20507;-67
2022/09/04 02:26:32;;;;;;;9.02;8.13;;;;;;;;;;5088277;28;20076;-67
2022/09/04 02:29:04;;;;;;;9.25;7.90;;;;;;;;;;5076110;28;20059;-67
2022/09/04 02:31:34;;;;;;;9.30;8.23;;;;;;;;;;5085958;28;20053;-67
2022/09/04 02:34:06;;;;;;;13.65;8.70;;;;;;;;;;5090580;28;20052;-67
2022/09/04 02:36:42;;;;;;;8.68;7.78;;;;;;;;;;5083965;27;20087;-67
2022/09/04 02:39:29;;;;;;;11.55;8.27;;;;;;;;;;5101416;27;20063;-68
2022/09/04 02:42:15;;;;;;;9.15;8.25;;;;;;;;;;5075133;28;20049;-67
2022/09/04 02:44:57;;;;;;;9.15;8.18;;;;;;;;;;5083726;28;20053;-68
2022/09/04 02:47:31;;;;;;;8.65;7.70;;;;;;;;;;5093066;28;20053;-68
2022/09/04 02:49:57;;;;;;;14.52;8.55;;;;;;;;;;5103404;28;20056;-67
2022/09/04 02:52:44;;;;;;;12.25;9.15;;;;;;;;;;5099479;28;20099;-67
2022/09/04 02:55:25;;;;;;;9.23;8.32;;;;;;;;;;5098292;27;20045;-67
2022/09/04 02:57:57;;;;;;;11.73;8.68;;;;;;;;;;5092634;28;20526;-66
2022/09/04 03:00:30;;;;;;;11.43;9.00;;;;;;;;;;5076092;28;20057;-69
2022/09/04 03:03:10;;;;;;;11.15;8.30;;;;;;;;;;5095685;28;20132;-67
2022/09/04 03:05:51;;;;;;;8.93;8.13;;;;;;;;;;5087280;28;20059;-68
2022/09/04 03:08:21;;;;;;;10.05;9.05;;;;;;;;;;5081710;28;20056;-67
2022/09/04 03:11:03;;;;;;;9.75;8.75;;;;;;;;;;5092638;27;20055;-68
2022/09/04 03:13:32;;;;;;;12.60;9.50;;;;;;;;;;5088945;28;20167;-68
2022/09/04 03:16:11;;;;;;;11.05;9.45;;;;;;;;;;5083018;28;20053;-68
2022/09/04 03:18:56;;;;;;;10.52;8.95;;;;;;;;;;5072376;28;20053;-68
2022/09/04 03:21:28;;;;;;;14.68;9.75;;;;;;;;;;5072394;28;20053;-68
2022/09/04 03:23:58;;;;;;;11.13;9.65;;;;;;;;;;5088921;28;20056;-68
2022/09/04 03:26:24;;;;;;;12.45;9.60;;;;;;;;;;5102006;28;20059;-68
2022/09/04 03:28:57;;;;;;;11.60;9.88;;;;;;;;;;5079148;28;20057;-68
2022/09/04 03:31:26;;;;;;;11.43;9.73;;;;;;;;;;5072926;28;20057;-68
2022/09/04 03:34:02;;;;;;;12.57;9.48;;;;;;;;;;5100784;28;20053;-68
2022/09/04 03:36:35;;;;;;;10.80;9.80;;;;;;;;;;5081345;28;20082;-68
2022/09/04 03:39:08;;;;;;;12.80;10.50;;;;;;;;;;5098166;27;20053;-68
2022/09/04 03:41:42;;;;;;;12.70;10.13;;;;;;;;;;5091257;28;20094;-68
2022/09/04 03:44:23;;;;;;;10.60;9.43;;;;;;;;;;5075269;28;20049;-68
2022/09/04 03:47:01;;;;;;;11.93;10.27;;;;;;;;;;5092413;28;20056;-69
2022/09/04 03:49:52;;;;;;;12.35;10.80;;;;;;;;;;5090333;28;20053;-68
2022/09/04 03:52:31;;;;;;;14.73;10.82;;;;;;;;;;5072374;28;20045;-68
2022/09/04 03:55:14;;;;;;;13.05;11.00;;;;;;;;;;5073531;28;20059;-68
2022/09/04 03:57:50;;;;;;;12.75;11.02;;;;;;;;;;5071382;28;20148;-68
2022/09/04 04:00:18;;;;;;;16.90;11.87;;;;;;;;;;5087635;28;20048;-68
2022/09/04 04:03:00;;;;;;;11.85;10.68;;;;;;;;;;5088839;27;20519;-68
2022/09/04 04:05:35;;;;;;;14.20;11.32;;;;;;;;;;5088610;28;20052;-68
2022/09/04 04:08:20;;;;;;;13.60;12.25;;;;;;;;;;5070948;28;20060;-68
2022/09/04 04:10:52;;;;;;;13.20;11.85;;;;;;;;;;5085514;28;20521;-68
2022/09/04 04:13:40;;;;;;;13.75;12.30;;;;;;;;;;5102259;28;20050;-68
2022/09/04 04:16:09;;;;;;;25.13;12.07;;;;;;;;;;5083513;28;20056;-68
2022/09/04 04:18:38;;;;;;;14.88;11.80;;;;;;;;;;5091099;28;20515;-68
2022/09/04 04:21:05;;;;;;;16.77;12.70;;;;;;;;;;5093876;28;20060;-68
2022/09/04 04:23:35;;;;;;;12.98;11.55;;;;;;;;;;5093428;27;20056;-68
2022/09/04 04:26:07;;;;;;;13.98;11.82;;;;;;;;;;5071024;28;20071;-68
2022/09/04 04:28:40;;;;;;;13.07;11.10;;;;;;;;;;5072840;28;20076;-68
2022/09/04 04:31:19;;;;;;;12.60;11.40;;;;;;;;;;5086693;28;20111;-67
2022/09/04 04:33:55;;;;;;;14.52;12.05;;;;;;;;;;5081405;28;20097;-68
2022/09/04 04:36:24;;;;;;;13.30;11.90;;;;;;;;;;5094898;27;20045;-68
2022/09/04 04:39:13;;;;;;;14.13;12.73;;;;;;;;;;5082440;28;20492;-68
2022/09/04 04:42:03;;;;;;;15.68;12.13;;;;;;;;;;5085342;28;20504;-68
2022/09/04 04:47:33;;;;;;;14.70;12.93;;;;;;;;;;5074715;28;20056;-68
2022/09/04 04:50:20;;;;;;;14.48;12.80;;;;;;;;;;5079783;28;20059;-68
2022/09/04 04:53:04;;;;;;;14.57;13.02;;;;;;;;;;5088232;28;20139;-68
2022/09/04 04:55:33;;;;;;;14.00;12.52;;;;;;;;;;5092850;28;20075;-68
2022/09/04 04:57:59;;;;;;;16.45;13.35;;;;;;;;;;5091276;28;20484;-67
2022/09/04 05:00:41;;;;;;;13.85;12.32;;;;;;;;;;5088788;28;20419;-68
2022/09/04 05:03:23;;;;;;;18.42;12.73;;;;;;;;;;5071453;28;20052;-68
2022/09/04 05:06:08;;;;;;;15.18;12.88;;;;;;;;;;5096033;28;20059;-67
2022/09/04 05:08:49;;;;;;;17.23;12.27;;;;;;;;;;5072081;28;20045;-68
2022/09/04 05:11:22;;;;;;;12.65;11.18;;;;;;;;;;5090422;28;20062;-68
2022/09/04 05:13:51;;;;;;;15.98;12.88;;;;;;;;;;5088521;28;20056;-67
2022/09/04 05:16:36;;;;;;;17.60;13.68;;;;;;;;;;5070597;28;20056;-67
2022/09/04 05:19:09;;;;;;;15.10;12.23;;;;;;;;;;5090526;27;20064;-67
2022/09/04 05:21:40;;;;;;;16.02;12.73;;;;;;;;;;5095928;28;20063;-67
2022/09/04 05:24:24;;;;;;;16.00;12.27;;;;;;;;;;5094227;28;20048;-67
2022/09/04 05:26:54;;;;;;;16.90;12.65;;;;;;;;;;5094069;28;20060;-67
2022/09/04 05:29:38;;;;;;;15.35;12.82;;;;;;;;;;5086338;28;20508;-67
2022/09/04 05:32:04;;;;;;;14.32;12.80;;;;;;;;;;5074404;28;20526;-68
2022/09/04 05:34:52;;;;;;;15.88;13.57;;;;;;;;;;5091200;28;20048;-68
2022/09/04 05:37:21;;;;;;;18.10;12.35;;;;;;;;;;5074020;28;20480;-68
2022/09/04 05:39:48;;;;;;;15.80;13.20;;;;;;;;;;5085183;28;20135;-68
2022/09/04 05:42:33;;;;;;;15.43;12.35;;;;;;;;;;5093441;28;20082;-68
2022/09/04 05:45:09;;;;;;;21.38;12.93;;;;;;;;;;5077078;28;20053;-68
2022/09/04 05:47:35;;;;;;;;;;;;;;;;;;5074662;28;20053;-68
2022/09/04 05:50:01;;;;;;;15.98;12.75;;;;;;;;;;5087832;28;47037;-68
2022/09/04 05:52:27;;;;;;;18.60;13.43;;;;;;;;;;5098125;28;20435;-69
2022/09/04 05:55:00;;;;;;;16.15;13.18;;;;;;;;;;5076658;28;20053;-68
2022/09/04 05:57:30;;;;;;;14.77;13.18;;;;;;;;;;5093764;28;20500;-68
2022/09/04 06:00:05;;;;;;;19.67;12.85;;;;;;;;;;5093212;28;20048;-68
2022/09/04 06:02:37;;;;;;;16.02;12.68;;;;;;;;;;5095642;28;20056;-67
2022/09/04 06:05:07;;;;;;;17.95;13.38;;;;;;;;;;5095550;28;20098;-67
2022/09/04 06:07:37;;;;;;;16.48;13.27;;;;;;;;;;5093114;28;20419;-67
2022/09/04 06:10:26;;;;;;;15.30;13.50;;;;;;;;;;5102996;28;20526;-68
2022/09/04 06:13:12;;;;;;;15.43;12.25;;;;;;;;;;5087543;28;20063;-67
2022/09/04 06:15:55;;;;;;;15.98;13.45;;;;;;;;;;5097564;27;20057;-67
2022/09/04 06:18:46;;;;;;;15.88;13.55;;;;;;;;;;5077032;28;20060;-67
2022/09/04 06:21:22;;;;;;;17.50;14.52;;;;;;;;;;5087054;28;20059;-68
2022/09/04 06:23:48;;;;;;;;;;;;;;;;;;5077997;28;20059;-67
2022/09/04 06:26:20;;;;;;;26.30;14.57;;;;;;;;;;5081252;28;45919;-67
2022/09/04 06:29:01;;;;;;;16.00;12.65;;;;;;;;;;5103773;28;20052;-68
2022/09/04 06:31:31;;;;;;;18.13;13.20;;;;;;;;;;5074107;28;20523;-67
2022/09/04 06:34:03;;;;;;;16.38;13.57;;;;;;;;;;5076183;28;20103;-67
2022/09/04 06:36:48;;;;;;;20.48;13.30;;;;;;;;;;5091532;28;20488;-68
2022/09/04 06:39:37;;;;;;;18.10;12.98;;;;;;;;;;5090279;28;20044;-67
2022/09/04 06:42:04;;;;;;;16.70;13.30;;;;;;;;;;5083798;28;20083;-68
2022/09/04 06:44:33;;;;;;;15.15;13.15;;;;;;;;;;5090724;28;20059;-68
2022/09/04 06:47:16;;;;;;;19.67;13.98;;;;;;;;;;5092605;28;20045;-68
2022/09/04 06:49:48;;;;;;;19.00;13.20;;;;;;;;;;5083392;28;20049;-67
2022/09/04 06:52:30;;;;;;;17.52;13.73;;;;;;;;;;5087504;28;20053;-68
2022/09/04 06:54:58;;;;;;;17.10;13.27;;;;;;;;;;5088955;28;20056;-67
2022/09/04 06:57:25;;;;;;;15.77;13.60;;;;;;;;;;5092192;28;20140;-67
2022/09/04 07:00:03;;;;;;;16.88;13.52;;;;;;;;;;5094106;28;20049;-67
2022/09/04 07:02:37;;;;;;;15.65;13.73;;;;;;;;;;5086571;28;20055;-67
2022/09/04 07:05:18;;;;;;;17.17;13.80;;;;;;;;;;5091240;28;20538;-68
2022/09/04 07:07:55;;;;;;;16.73;13.52;;;;;;;;;;5088377;28;20048;-68
2022/09/04 07:10:25;;;;;;;18.02;14.07;;;;;;;;;;5088668;28;20056;-68
2022/09/04 07:12:51;;;;;;;18.75;14.10;;;;;;;;;;5086935;28;20060;-67
2022/09/04 07:15:36;;;;;;;18.35;14.23;;;;;;;;;;5084832;28;20053;-67
2022/09/04 07:18:09;;;;;;;17.25;14.10;;;;;;;;;;5092190;28;20078;-68
2022/09/04 07:20:40;;;;;;;18.40;13.45;;;;;;;;;;5090962;28;20056;-68
2022/09/04 07:23:18;;;;;;;16.58;13.90;;;;;;;;;;5089163;28;20492;-67
2022/09/04 07:26:10;;;;;;;17.27;14.65;;;;;;;;;;5088170;28;20061;-68
2022/09/04 07:28:46;;;;;;;17.58;13.68;;;;;;;;;;5090829;28;20050;-68
2022/09/04 07:31:20;;;;;;;18.40;13.77;;;;;;;;;;5091276;28;20057;-68
2022/09/04 07:33:59;;;;;;;18.30;14.73;;;;;;;;;;5086765;28;20061;-67
2022/09/04 07:36:49;;;;;;;14.93;13.32;;;;;;;;;;5104895;27;20972;-68
2022/09/04 07:39:24;;;;;;;16.67;13.65;;;;;;;;;;5086302;28;20063;-68
2022/09/04 07:41:54;;;;;;;16.95;14.68;;;;;;;;;;5087759;28;20067;-68
2022/09/04 07:44:28;;;;;;;16.45;14.23;;;;;;;;;;5088521;28;20582;-68
2022/09/04 07:47:08;;;;;;;15.88;13.15;;;;;;;;;;5101845;27;20060;-67
2022/09/04 07:49:46;;;;;;;20.65;14.55;;;;;;;;;;5090453;28;20064;-68
2022/09/04 07:52:32;;;;;;;16.95;13.43;;;;;;;;;;5100469;28;20063;-68
2022/09/04 07:55:18;;;;;;;18.40;15.38;;;;;;;;;;5079940;28;20048;-68
2022/09/04 07:57:44;;;;;;;16.48;14.25;;;;;;;;;;5083324;28;20056;-68
2022/09/04 08:00:13;;;;;;;18.83;14.05;;;;;;;;;;5077322;28;20393;-67
2022/09/04 08:02:50;;;;;;;15.10;13.13;;;;;;;;;;5091318;28;20057;-68
2022/09/04 08:05:22;;;;;;;20.30;15.05;;;;;;;;;;5089699;28;20044;-67
2022/09/04 08:08:09;;;;;;;18.73;14.68;;;;;;;;;;5090677;28;20053;-68
2022/09/04 08:10:58;;;;;;;16.52;14.77;;;;;;;;;;5098696;28;20064;-67
2022/09/04 08:13:36;;;;;;;19.23;14.40;;;;;;;;;;5097847;28;20056;-67
2022/09/04 08:16:02;;;;;;;16.17;14.35;;;;;;;;;;5087144;28;20060;-68
2022/09/04 08:18:28;;;;;;;17.80;14.65;;;;;;;;;;5085260;28;20657;-69
2022/09/04 08:20:55;;;;;;;20.35;14.55;;;;;;;;;;5085381;28;20049;-68
2022/09/04 08:23:29;;;;;;;19.30;14.60;;;;;;;;;;5096963;28;20052;-68
2022/09/04 08:25:58;;;;;;;20.80;13.43;;;;;;;;;;5070912;28;20527;-67
2022/09/04 08:28:43;;;;;;;16.13;14.43;;;;;;;;;;5086375;28;20060;-66
2022/09/04 08:31:19;;;;;;;18.20;15.63;;;;;;;;;;5081395;28;20056;-67
2022/09/04 08:33:56;;;;;;;19.90;15.75;;;;;;;;;;5081531;28;20064;-67
2022/09/04 08:36:34;;;;;;;16.60;14.85;;;;;;;;;;5072885;28;20055;-67
2022/09/04 08:39:03;;;;;;;16.83;13.50;;;;;;;;;;5081416;28;20053;-68
2022/09/04 08:41:53;;;;;;;18.88;14.93;;;;;;;;;;5091429;28;20063;-69
2022/09/04 08:44:38;;;;;;;21.05;14.98;;;;;;;;;;5082156;28;20085;-67
2022/09/04 08:47:30;;;;;;;17.90;14.60;;;;;;;;;;5101833;28;20090;-66
2022/09/04 08:50:12;;;;;;;20.23;15.15;;;;;;;;;;5095251;28;20139;-68
2022/09/04 08:52:51;;;;;;;18.02;15.73;;;;;;;;;;5101815;28;20071;-67
2022/09/04 08:55:17;;;;;;;17.25;14.40;;;;;;;;;;5096258;27;20583;-66
2022/09/04 08:57:52;;;;;;;18.90;15.05;;;;;;;;;;5086933;28;20523;-67
2022/09/04 09:00:19;;;;;;;;;;;;;;;;;;5085184;28;20479;-67
2022/09/04 09:02:45;;;;;;;17.63;14.90;;;;;;;;;;5094247;28;44815;-67
2022/09/04 09:05:15;;;;;;;18.77;14.75;;;;;;;;;;5094097;28;20412;-66
2022/09/04 09:08:09;;;;;;;17.17;15.05;;;;;;;;;;5084279;28;20072;-67
2022/09/04 09:10:35;;;;;;;21.08;14.93;;;;;;;;;;5093626;28;20062;-68
2022/09/04 09:13:20;;;;;;;16.65;13.93;;;;;;;;;;5100452;28;20052;-68
2022/09/04 09:15:50;;;;;;;16.60;14.73;;;;;;;;;;5100545;28;20044;-67
2022/09/04 09:18:36;;;;;;;17.33;15.13;;;;;;;;;;5100286;28;20048;-67
2022/09/04 09:21:09;;;;;;;17.50;14.80;;;;;;;;;;5112761;27;20057;-68
2022/09/04 09:23:46;;;;;;;17.48;14.50;;;;;;;;;;5102989;28;20461;-67
2022/09/04 09:26:22;;;;;;;17.95;14.30;;;;;;;;;;5099251;28;20530;-67
2022/09/04 09:28:57;;;;;;;14.68;12.82;;;;;;;;;;5104190;28;20052;-68
2022/09/04 09:31:42;;;;;;;21.38;13.55;;;;;;;;;;5100498;28;20052;-67
2022/09/04 09:34:24;;;;;;;15.68;12.77;;;;;;;;;;5099947;28;20094;-67
2022/09/04 09:37:09;;;;;;;17.52;14.23;;;;;;;;;;5100911;28;20078;-67
2022/09/04 09:39:54;;;;;;;16.75;13.95;;;;;;;;;;5091085;28;20056;-67
2022/09/04 09:42:34;;;;;;;13.27;11.88;;;;;;;;;;5082348;28;20048;-66
2022/09/04 09:45:19;;;;;;;16.63;13.27;;;;;;;;;;5087356;28;20060;-68
2022/09/04 09:47:49;;;;;;;18.33;13.73;;;;;;;;;;5081088;28;20059;-68
2022/09/04 09:50:19;;;;;;;20.00;11.63;;;;;;;;;;5096385;28;20049;-66
2022/09/04 09:53:08;;;;;;;13.93;11.98;;;;;;;;;;5092110;28;20480;-68
2022/09/04 09:55:37;;;;;;;16.63;11.20;;;;;;;;;;5092002;28;20507;-66
2022/09/04 09:58:19;;;;;;;11.90;10.13;;;;;;;;;;5092823;28;20057;-66
2022/09/04 10:01:04;;;;;;;13.30;10.38;;;;;;;;;;5086729;28;20049;-65
2022/09/04 10:03:49;;;;;;;13.73;9.98;;;;;;;;;;5094075;28;20060;-66
2022/09/04 10:06:28;;;;;;;11.85;9.35;;;;;;;;;;5082302;28;20511;-66
2022/09/04 10:09:12;;;;;;;12.02;8.35;;;;;;;;;;5084866;28;20056;-66
2022/09/04 10:11:48;;;;;;;9.25;7.25;;;;;;;;;;5093589;28;20045;-66
2022/09/04 10:14:20;;;;;;;11.43;6.72;;;;;;;;;;5094192;28;20063;-65
2022/09/04 10:17:05;;;;;;;6.85;4.72;;;;;;;;;;5093832;28;20045;-65
2022/09/04 10:19:52;;;;;;;9.15;4.38;;;;;;;;;;5093957;28;20052;-66
2022/09/04 10:22:37;;;;;;;5.55;4.32;;;;;;;;;;5093209;28;20048;-66
2022/09/04 10:25:23;;;;;;;9.73;4.38;;;;;;;;;;5105154;28;20063;-66
2022/09/04 10:28:07;;;;;;;5.10;3.90;;;;;;;;;;5093360;28;20052;-66
2022/09/04 10:30:50;;;;;;;4.80;4.30;;;;;;;;;;5093243;28;20091;-66
2022/09/04 10:33:26;;;;;;;6.60;5.18;;;;;;;;;;5093599;28;20049;-66
2022/09/04 10:36:03;;;;;;;6.65;4.70;;;;;;;;;;5093044;28;20059;-66
2022/09/04 10:38:35;;;;;;;5.47;3.97;;;;;;;;;;5092184;28;20419;-67
2022/09/04 10:41:14;;;;;;;3.60;3.30;;;;;;;;;;5078718;28;20059;-66
2022/09/04 10:43:54;;;;;;;4.53;3.97;;;;;;;;;;5089372;28;20139;-67
2022/09/04 10:46:26;;;;;;;4.22;3.75;;;;;;;;;;5093212;28;20064;-66
2022/09/04 10:49:11;;;;;;;5.18;3.28;;;;;;;;;;5095095;28;20044;-67
2022/09/04 10:51:55;;;;;;;8.45;3.08;;;;;;;;;;5112408;27;20058;-67
2022/09/04 10:54:29;;;;;;;6.15;5.13;;;;;;;;;;5081412;27;20045;-66
2022/09/04 10:57:17;;;;;;;5.50;4.32;;;;;;;;;;5090822;28;20058;-66
2022/09/04 10:59:52;;;;;;;6.05;4.15;;;;;;;;;;5088970;28;20055;-66
2022/09/04 11:02:32;;;;;;;5.00;4.00;;;;;;;;;;5093855;28;20057;-66
2022/09/04 11:04:58;;;;;;;6.70;4.40;;;;;;;;;;5090350;28;20060;-66
2022/09/04 11:07:25;;;;;;;4.45;3.92;;;;;;;;;;5095060;28;20080;-66
2022/09/04 11:09:54;;;;;;;7.38;3.50;;;;;;;;;;5092723;28;20052;-66
2022/09/04 11:12:52;;;;;;;4.60;3.60;;;;;;;;;;5091688;28;20057;-66
2022/09/04 11:15:20;;;;;;;6.07;3.45;;;;;;;;;;5053768;28;20506;-66
2022/09/04 11:17:55;;;;;;;7.10;3.63;;;;;;;;;;5092674;28;20059;-66
2022/09/04 11:20:22;;;;;;;6.07;3.42;;;;;;;;;;5091092;28;20055;-65
2022/09/04 11:22:50;;;;;;;4.47;3.45;;;;;;;;;;5092793;28;20075;-66
2022/09/04 11:25:22;;;;;;;4.47;3.40;;;;;;;;;;5095936;28;20113;-65
2022/09/04 11:28:04;;;;;;;8.98;4.63;;;;;;;;;;5097385;27;20072;-66
2022/09/04 11:30:52;;;;;;;4.32;3.10;;;;;;;;;;5091451;28;20052;-66
2022/09/04 11:33:37;;;;;;;6.68;3.92;;;;;;;;;;5092452;28;20059;-66
2022/09/04 11:36:24;;;;;;;6.32;3.00;;;;;;;;;;5092595;28;20056;-67
2022/09/04 11:38:50;;;;;;;3.33;3.03;;;;;;;;;;5095559;27;20048;-66
2022/09/04 11:41:23;;;;;;;3.33;2.70;;;;;;;;;;5098292;28;20048;-66
2022/09/04 11:44:13;;;;;;;3.33;3.03;;;;;;;;;;5084077;28;20053;-67
2022/09/04 11:46:49;;;;;;;5.07;3.55;;;;;;;;;;5070186;28;20052;-67
2022/09/04 11:49:18;;;;;;;4.20;3.58;;;;;;;;;;5088705;28;20052;-67
2022/09/04 16:32:46;;;;;;;16.55;8.02;;;;;;;;;;5144993;27;20784;-66
2022/09/04 16:35:18;;;;;;;14.32;6.78;;;;;;;;;;5145261;27;20391;-67
2022/09/04 16:37:51;;;;;;;11.90;5.40;;;;;;;;;;5148698;27;20051;-66
2022/09/04 16:40:28;;;;;;;10.40;5.18;;;;;;;;;;5147040;27;20052;-66
2022/09/04 16:43:08;;;;;;;7.95;4.93;;;;;;;;;;5147405;27;20047;-66
2022/09/04 16:45:55;;;;;;;9.82;3.88;;;;;;;;;;5147852;27;20052;-67
2022/09/04 16:48:26;;;;;;;12.77;4.80;;;;;;;;;;5146191;27;20100;-66
2022/09/04 16:51:04;;;;;;;5.47;2.88;;;;;;;;;;5144481;27;20048;-66
2022/09/04 16:53:52;;;;;;;3.45;3.15;;;;;;;;;;5149361;27;20055;-67
2022/09/04 16:56:30;;;;;;;3.47;2.47;;;;;;;;;;5148490;27;20050;-67
2022/09/04 16:59:09;;;;;;;6.30;3.17;;;;;;;;;;5143981;27;20051;-66
2022/09/04 17:01:56;;;;;;;3.10;2.20;;;;;;;;;;5145997;27;20047;-66
2022/09/04 17:04:35;;;;;;;4.25;2.28;;;;;;;;;;5143791;27;20051;-66
2022/09/04 17:07:24;;;;;;;3.22;2.70;;;;;;;;;;5143604;27;20559;-65
2022/09/04 17:09:50;;;;;;;3.58;2.20;;;;;;;;;;5146777;27;20079;-65
2022/09/04 17:12:36;;;;;;;3.22;2.55;;;;;;;;;;5147418;27;20052;-65
2022/09/04 17:15:05;;;;;;;3.35;2.10;;;;;;;;;;5147940;27;20047;-66
2022/09/04 17:17:35;;;;;;;2.17;1.90;;;;;;;;;;5146816;27;20062;-65
2022/09/04 17:20:09;;;;;;;3.80;1.73;;;;;;;;;;5142582;27;20062;-65
2022/09/04 17:22:49;;;;;;;4.67;2.00;;;;;;;;;;5147273;27;20414;-66
2022/09/04 17:25:39;;;;;;;3.20;1.52;;;;;;;;;;5131337;27;20277;-66
2022/09/04 17:28:36;;;;;;;3.05;1.85;;;;;;;;;;5147383;27;20060;-66
2022/09/04 17:31:27;;;;;;;2.28;1.70;;;;;;;;;;5140390;27;20064;-66
2022/09/04 17:34:08;;;;;;;2.03;1.60;;;;;;;;;;5141504;27;20051;-66
2022/09/04 17:37:10;;;;;;;7.72;1.85;;;;;;;;;;5144750;27;20126;-67
2022/09/04 17:40:15;;;;;;;1.83;1.52;;;;;;;;;;5141144;27;20052;-71
2022/09/04 17:43:20;;;;;;;7.78;1.40;;;;;;;;;;5123246;27;20047;-68
2022/09/04 17:45:59;;;;;;;4.30;1.98;;;;;;;;;;5133950;27;20063;-67
2022/09/04 17:48:26;;;;;;;1.35;1.25;;;;;;;;;;5131244;27;20107;-68
2022/09/04 17:50:57;;;;;;;3.05;1.50;;;;;;;;;;5115669;27;20058;-67
2022/09/04 17:53:30;;;;;;;2.17;1.40;;;;;;;;;;5128397;27;20055;-68
2022/09/04 17:56:09;;;;;;;2.80;1.20;;;;;;;;;;5129104;27;20079;-68
2022/09/04 17:58:50;;;;;;;3.38;1.50;;;;;;;;;;5127576;27;20063;-68
2022/09/04 18:01:24;;;;;;;1.42;1.33;;;;;;;;;;5129088;27;20139;-67
2022/09/04 18:04:09;;;;;;;3.07;1.70;;;;;;;;;;5133978;27;20051;-68
2022/09/04 18:07:10;;;;;;;4.05;1.98;;;;;;;;;;5128999;27;21161;-68
2022/09/04 18:10:16;;;;;;;5.88;1.88;;;;;;;;;;5121173;27;20052;-68
2022/09/04 18:12:42;;;;;;;2.13;1.80;;;;;;;;;;5116181;27;20134;-68
2022/09/04 18:15:08;;;;;;;6.80;1.80;;;;;;;;;;5116275;27;20051;-68
2022/09/04 18:17:59;;;;;;;5.50;2.10;;;;;;;;;;5118386;27;20055;-69
2022/09/04 18:20:36;;;;;;;4.95;2.00;;;;;;;;;;5144055;27;20051;-69
2022/09/04 18:23:05;;;;;;;6.53;1.95;;;;;;;;;;5132901;27;20048;-68
2022/09/04 18:25:41;;;;;;;2.30;1.88;;;;;;;;;;5125460;27;20578;-68
2022/09/04 18:28:14;;;;;;;4.68;2.33;;;;;;;;;;5129824;27;20509;-68
2022/09/04 18:30:48;;;;;;;2.97;2.30;;;;;;;;;;5121877;27;20526;-67
2022/09/04 18:33:52;;;;;;;4.45;2.63;;;;;;;;;;5126739;27;20580;-68
2022/09/04 18:36:42;;;;;;;5.00;2.45;;;;;;;;;;5135135;27;20055;-68
2022/09/04 18:39:40;;;;;;;3.55;2.45;;;;;;;;;;5124256;27;20052;-67
2022/09/04 18:42:25;;;;;;;3.67;2.58;;;;;;;;;;5127973;27;20055;-67
2022/09/04 18:45:15;;;;;;;6.38;3.00;;;;;;;;;;5129716;27;20056;-67
2022/09/04 18:48:03;;;;;;;6.88;2.75;;;;;;;;;;5104839;27;20055;-68
2022/09/04 18:50:57;;;;;;;4.05;2.50;;;;;;;;;;5128492;27;20051;-67
2022/09/04 18:53:50;;;;;;;3.58;2.50;;;;;;;;;;5130758;27;20063;-67
2022/09/04 18:56:18;;;;;;;4.88;2.42;;;;;;;;;;5117194;27;20048;-67
2022/09/04 18:58:52;;;;;;;3.38;2.33;;;;;;;;;;5124221;27;20052;-67
2022/09/04 19:01:22;;;;;;;5.03;2.83;;;;;;;;;;5124672;27;20480;-67
2022/09/04 19:04:00;;;;;;;3.95;2.20;;;;;;;;;;5124092;27;20134;-66
2022/09/04 19:06:53;;;;;;;5.18;2.28;;;;;;;;;;5125232;27;20056;-68
2022/09/04 19:09:45;;;;;;;3.95;2.55;;;;;;;;;;5121363;27;20047;-69
2022/09/04 19:12:22;;;;;;;3.83;2.50;;;;;;;;;;5130038;27;20157;-68
2022/09/04 19:14:51;;;;;;;4.68;2.70;;;;;;;;;;5132419;27;20058;-68
2022/09/04 19:17:27;;;;;;;3.53;2.50;;;;;;;;;;5112387;27;20044;-67
2022/09/04 19:20:14;;;;;;;6.05;2.92;;;;;;;;;;5130216;27;20047;-67
2022/09/04 19:22:48;;;;;;;3.83;2.42;;;;;;;;;;5132843;27;20503;-68
2022/09/04 19:25:17;;;;;;;3.00;2.60;;;;;;;;;;5128131;27;20525;-67
2022/09/04 19:27:50;;;;;;;5.90;2.63;;;;;;;;;;5121250;27;20422;-68
2022/09/04 19:30:22;;;;;;;5.40;2.45;;;;;;;;;;5127779;27;20593;-69
2022/09/04 19:33:02;;;;;;;2.47;2.25;;;;;;;;;;5131333;27;20443;-67
2022/09/04 19:35:41;;;;;;;4.80;2.50;;;;;;;;;;5117729;27;20086;-66
2022/09/04 19:38:22;;;;;;;4.50;2.42;;;;;;;;;;5121515;27;20097;-68
2022/09/04 19:41:12;;;;;;;5.40;3.00;;;;;;;;;;5120428;27;20048;-67
2022/09/04 19:44:12;;;;;;;4.00;2.80;;;;;;;;;;5132105;27;20072;-68
2022/09/04 19:46:58;;;;;;;6.13;3.60;;;;;;;;;;5128725;27;20048;-68
2022/09/04 19:49:35;;;;;;;5.60;3.35;;;;;;;;;;5123563;27;20514;-68
2022/09/04 19:52:28;;;;;;;5.47;3.72;;;;;;;;;;5127587;27;20920;-68
2022/09/04 19:55:16;;;;;;;4.97;2.92;;;;;;;;;;5125999;27;20063;-67
2022/09/04 19:58:06;;;;;;;5.13;3.22;;;;;;;;;;5128973;27;20056;-67
2022/09/04 20:00:34;;;;;;;4.85;3.50;;;;;;;;;;5126803;27;20466;-68
2022/09/04 20:03:20;;;;;;;4.57;3.00;;;;;;;;;;5131728;27;20107;-68
2022/09/04 20:06:03;;;;;;;6.50;3.40;;;;;;;;;;5122863;27;20052;-68
2022/09/04 20:09:13;;;;;;;5.15;3.28;;;;;;;;;;5120631;27;20549;-67
2022/09/04 20:11:45;;;;;;;6.53;3.78;;;;;;;;;;5128214;27;20138;-67
2022/09/04 20:14:23;;;;;;;4.43;3.20;;;;;;;;;;5126768;27;20048;-69
2022/09/04 20:16:55;;;;;;;4.50;3.00;;;;;;;;;;5135113;27;20055;-66